Turks and Caicos Islands Weather

[source: ADDS]
METAR
MBPV 212245Z 2200/2300 04020KT 9999 SCT015 PROB40 TEMPO 2214/2222 08020KT 4800 TSRA SCT012 BKN015CB OVC030 MBGT 212245Z 2200/2300 10013KT 9999 SCT015 PROB40 TEMPO 2214/2222 08020KT 4800 TSRA SCT012 BKN015CB OVC030 TAF
MBPV 212245Z 2200/2300 04020KT 9999 SCT015 PROB40 TEMPO 2214/2222 08020KT 4800 TSRA SCT012 BKN015CB OVC030 =
MBGT 212245Z 2200/2300 10013KT 9999 SCT015 PROB40 TEMPO 2214/2222 08020KT 4800 TSRA SCT012 BKN015CB OVC030 =
SR / SS: 10:29 / 23:14 UTC (MBPV 2014-08-21)
E-mail Print PDF
Weather